sensor_id;sensor_type;location;lat;lon;timestamp;temperature;humidity
60313;DHT22;46158;52.850;6.970;2022-10-04T00:03:03;18.60;81.90
60313;DHT22;46158;52.850;6.970;2022-10-04T00:05:31;18.60;81.30
60313;DHT22;46158;52.850;6.970;2022-10-04T00:08:01;18.60;81.30
60313;DHT22;46158;52.850;6.970;2022-10-04T00:10:31;18.60;81.20
60313;DHT22;46158;52.850;6.970;2022-10-04T00:13:03;18.60;81.20
60313;DHT22;46158;52.850;6.970;2022-10-04T00:15:36;18.60;81.20
60313;DHT22;46158;52.850;6.970;2022-10-04T00:18:37;18.60;81.10
60313;DHT22;46158;52.850;6.970;2022-10-04T00:21:05;18.60;81.10
60313;DHT22;46158;52.850;6.970;2022-10-04T00:26:08;18.50;81.10
60313;DHT22;46158;52.850;6.970;2022-10-04T00:31:12;18.50;81.10
60313;DHT22;46158;52.850;6.970;2022-10-04T00:44:31;18.50;81.00
60313;DHT22;46158;52.850;6.970;2022-10-04T00:46:59;18.40;81.10
60313;DHT22;46158;52.850;6.970;2022-10-04T00:49:34;18.40;81.70
60313;DHT22;46158;52.850;6.970;2022-10-04T00:52:13;18.40;80.90
60313;DHT22;46158;52.850;6.970;2022-10-04T00:54:48;18.40;80.90
60313;DHT22;46158;52.850;6.970;2022-10-04T00:57:27;18.40;80.90
60313;DHT22;46158;52.850;6.970;2022-10-04T01:00:03;18.40;80.90
60313;DHT22;46158;52.850;6.970;2022-10-04T01:02:57;18.40;80.90
60313;DHT22;46158;52.850;6.970;2022-10-04T01:05:32;18.40;80.90
60313;DHT22;46158;52.850;6.970;2022-10-04T01:08:11;18.40;80.90
60313;DHT22;46158;52.850;6.970;2022-10-04T01:13:21;18.40;80.90
60313;DHT22;46158;52.850;6.970;2022-10-04T01:16:03;18.30;80.80
60313;DHT22;46158;52.850;6.970;2022-10-04T01:18:32;18.30;80.80
60313;DHT22;46158;52.850;6.970;2022-10-04T01:28:55;18.30;80.80
60313;DHT22;46158;52.850;6.970;2022-10-04T01:31:21;18.30;80.90
60313;DHT22;46158;52.850;6.970;2022-10-04T01:33:47;18.30;80.80
60313;DHT22;46158;52.850;6.970;2022-10-04T01:36:13;18.20;80.80
60313;DHT22;46158;52.850;6.970;2022-10-04T01:38:38;18.20;80.80
60313;DHT22;46158;52.850;6.970;2022-10-04T01:41:05;18.20;80.80
60313;DHT22;46158;52.850;6.970;2022-10-04T01:43:36;18.20;80.70
60313;DHT22;46158;52.850;6.970;2022-10-04T01:46:10;18.20;80.70
60313;DHT22;46158;52.850;6.970;2022-10-04T01:48:37;18.20;80.60
60313;DHT22;46158;52.850;6.970;2022-10-04T01:51:20;18.20;80.70
60313;DHT22;46158;52.850;6.970;2022-10-04T01:53:57;18.20;80.70
60313;DHT22;46158;52.850;6.970;2022-10-04T01:56:29;18.20;80.70
60313;DHT22;46158;52.850;6.970;2022-10-04T01:59:00;18.20;80.70
60313;DHT22;46158;52.850;6.970;2022-10-04T02:01:42;18.20;80.70
60313;DHT22;46158;52.850;6.970;2022-10-04T02:04:30;18.10;80.50
60313;DHT22;46158;52.850;6.970;2022-10-04T02:06:58;18.10;81.20
60313;DHT22;46158;52.850;6.970;2022-10-04T02:09:31;18.10;80.70
60313;DHT22;46158;52.850;6.970;2022-10-04T02:11:59;18.10;80.70
60313;DHT22;46158;52.850;6.970;2022-10-04T02:14:30;18.10;80.70
60313;DHT22;46158;52.850;6.970;2022-10-04T02:17:06;18.10;80.60
60313;DHT22;46158;52.850;6.970;2022-10-04T02:19:37;18.10;80.60
60313;DHT22;46158;52.850;6.970;2022-10-04T02:22:06;18.10;80.60
60313;DHT22;46158;52.850;6.970;2022-10-04T02:24:37;18.00;80.50
60313;DHT22;46158;52.850;6.970;2022-10-04T02:27:03;18.00;80.50
60313;DHT22;46158;52.850;6.970;2022-10-04T02:29:30;18.00;80.60
60313;DHT22;46158;52.850;6.970;2022-10-04T02:31:56;18.00;80.70
60313;DHT22;46158;52.850;6.970;2022-10-04T02:34:48;18.00;80.60
60313;DHT22;46158;52.850;6.970;2022-10-04T02:37:14;18.00;80.70
60313;DHT22;46158;52.850;6.970;2022-10-04T02:39:52;18.00;80.60
60313;DHT22;46158;52.850;6.970;2022-10-04T02:45:47;18.00;80.40
60313;DHT22;46158;52.850;6.970;2022-10-04T02:48:33;17.90;80.40
60313;DHT22;46158;52.850;6.970;2022-10-04T02:56:40;17.90;80.40
60313;DHT22;46158;52.850;6.970;2022-10-04T02:59:07;17.90;80.50
60313;DHT22;46158;52.850;6.970;2022-10-04T03:04:16;17.90;80.50
60313;DHT22;46158;52.850;6.970;2022-10-04T03:06:45;17.90;80.50
60313;DHT22;46158;52.850;6.970;2022-10-04T03:09:11;17.90;80.50
60313;DHT22;46158;52.850;6.970;2022-10-04T03:11:38;17.80;80.60
60313;DHT22;46158;52.850;6.970;2022-10-04T03:14:12;17.80;80.50
60313;DHT22;46158;52.850;6.970;2022-10-04T03:16:41;17.90;80.60
60313;DHT22;46158;52.850;6.970;2022-10-04T03:19:07;17.80;80.50
60313;DHT22;46158;52.850;6.970;2022-10-04T03:21:35;17.80;80.50
60313;DHT22;46158;52.850;6.970;2022-10-04T03:24:03;17.80;80.50
60313;DHT22;46158;52.850;6.970;2022-10-04T03:28:57;17.80;80.40
60313;DHT22;46158;52.850;6.970;2022-10-04T03:31:24;17.80;80.50
60313;DHT22;46158;52.850;6.970;2022-10-04T03:33:53;17.80;80.40
60313;DHT22;46158;52.850;6.970;2022-10-04T03:36:20;17.80;80.40
60313;DHT22;46158;52.850;6.970;2022-10-04T03:38:48;17.80;80.40
60313;DHT22;46158;52.850;6.970;2022-10-04T03:41:17;17.80;80.40
60313;DHT22;46158;52.850;6.970;2022-10-04T03:43:45;17.70;80.40
60313;DHT22;46158;52.850;6.970;2022-10-04T03:46:12;17.80;80.40
60313;DHT22;46158;52.850;6.970;2022-10-04T03:48:42;17.70;80.30
60313;DHT22;46158;52.850;6.970;2022-10-04T03:51:21;17.70;80.30
60313;DHT22;46158;52.850;6.970;2022-10-04T03:53:55;17.70;80.40
60313;DHT22;46158;52.850;6.970;2022-10-04T03:58:49;17.70;80.40
60313;DHT22;46158;52.850;6.970;2022-10-04T04:04:21;17.70;80.30
60313;DHT22;46158;52.850;6.970;2022-10-04T04:09:33;17.70;80.50
60313;DHT22;46158;52.850;6.970;2022-10-04T04:12:01;17.70;80.30
60313;DHT22;46158;52.850;6.970;2022-10-04T04:14:29;17.70;80.40
60313;DHT22;46158;52.850;6.970;2022-10-04T04:17:33;17.70;80.40
60313;DHT22;46158;52.850;6.970;2022-10-04T04:20:03;17.60;80.20
60313;DHT22;46158;52.850;6.970;2022-10-04T04:22:31;17.60;80.40
60313;DHT22;46158;52.850;6.970;2022-10-04T04:24:59;17.60;80.30
60313;DHT22;46158;52.850;6.970;2022-10-04T04:27:28;17.60;80.20
60313;DHT22;46158;52.850;6.970;2022-10-04T04:29:58;17.60;80.30
60313;DHT22;46158;52.850;6.970;2022-10-04T04:32:37;17.60;80.30
60313;DHT22;46158;52.850;6.970;2022-10-04T04:35:06;17.60;80.20
60313;DHT22;46158;52.850;6.970;2022-10-04T04:37:41;17.60;80.30
60313;DHT22;46158;52.850;6.970;2022-10-04T04:42:44;17.60;80.10
60313;DHT22;46158;52.850;6.970;2022-10-04T04:45:19;17.60;80.20
60313;DHT22;46158;52.850;6.970;2022-10-04T04:47:49;17.60;80.10
60313;DHT22;46158;52.850;6.970;2022-10-04T04:50:21;17.60;80.10
60313;DHT22;46158;52.850;6.970;2022-10-04T04:53:41;17.50;80.00
60313;DHT22;46158;52.850;6.970;2022-10-04T04:55:55;17.50;80.00
60313;DHT22;46158;52.850;6.970;2022-10-04T04:58:42;17.50;80.20
60313;DHT22;46158;52.850;6.970;2022-10-04T05:01:30;17.50;80.00
60313;DHT22;46158;52.850;6.970;2022-10-04T05:06:30;17.50;80.10
60313;DHT22;46158;52.850;6.970;2022-10-04T05:08:56;17.50;80.10
60313;DHT22;46158;52.850;6.970;2022-10-04T05:11:26;17.50;80.10
60313;DHT22;46158;52.850;6.970;2022-10-04T05:14:09;17.50;80.10
60313;DHT22;46158;52.850;6.970;2022-10-04T05:16:45;17.50;80.10
60313;DHT22;46158;52.850;6.970;2022-10-04T05:19:26;17.40;80.10
60313;DHT22;46158;52.850;6.970;2022-10-04T05:21:56;17.50;80.80
60313;DHT22;46158;52.850;6.970;2022-10-04T05:24:31;17.40;80.10
60313;DHT22;46158;52.850;6.970;2022-10-04T05:27:16;17.40;80.10
60313;DHT22;46158;52.850;6.970;2022-10-04T05:35:21;17.40;80.20
60313;DHT22;46158;52.850;6.970;2022-10-04T05:43:35;17.40;80.30
60313;DHT22;46158;52.850;6.970;2022-10-04T05:48:48;17.40;80.50
60313;DHT22;46158;52.850;6.970;2022-10-04T05:51:25;17.40;81.30
60313;DHT22;46158;52.850;6.970;2022-10-04T05:53:54;17.40;80.60
60313;DHT22;46158;52.850;6.970;2022-10-04T06:02:15;17.40;80.60
60313;DHT22;46158;52.850;6.970;2022-10-04T06:07:47;17.40;80.70
60313;DHT22;46158;52.850;6.970;2022-10-04T06:21:30;17.40;81.00
60313;DHT22;46158;52.850;6.970;2022-10-04T06:24:13;17.40;81.00
60313;DHT22;46158;52.850;6.970;2022-10-04T06:26:45;17.40;81.00
60313;DHT22;46158;52.850;6.970;2022-10-04T06:29:26;17.40;81.10
60313;DHT22;46158;52.850;6.970;2022-10-04T06:48:31;17.50;81.50
60313;DHT22;46158;52.850;6.970;2022-10-04T06:56:25;17.40;81.60
60313;DHT22;46158;52.850;6.970;2022-10-04T06:59:13;17.50;81.70
60313;DHT22;46158;52.850;6.970;2022-10-04T07:02:13;17.50;81.80
60313;DHT22;46158;52.850;6.970;2022-10-04T07:04:59;17.50;81.90
60313;DHT22;46158;52.850;6.970;2022-10-04T07:07:32;17.50;82.10
60313;DHT22;46158;52.850;6.970;2022-10-04T07:15:32;17.50;82.40
60313;DHT22;46158;52.850;6.970;2022-10-04T07:18:04;17.50;82.50
60313;DHT22;46158;52.850;6.970;2022-10-04T07:20:33;17.50;82.60
60313;DHT22;46158;52.850;6.970;2022-10-04T07:23:14;17.60;82.80
60313;DHT22;46158;52.850;6.970;2022-10-04T07:25:48;17.60;82.80
60313;DHT22;46158;52.850;6.970;2022-10-04T07:28:22;17.60;83.00
60313;DHT22;46158;52.850;6.970;2022-10-04T07:33:50;17.60;83.20
60313;DHT22;46158;52.850;6.970;2022-10-04T07:36:23;17.60;83.40
60313;DHT22;46158;52.850;6.970;2022-10-04T07:38:55;17.60;83.50
60313;DHT22;46158;52.850;6.970;2022-10-04T07:41:33;17.60;83.60
60313;DHT22;46158;52.850;6.970;2022-10-04T07:46:57;17.70;83.70
60313;DHT22;46158;52.850;6.970;2022-10-04T07:49:24;17.70;83.80
60313;DHT22;46158;52.850;6.970;2022-10-04T07:54:51;17.70;83.90
60313;DHT22;46158;52.850;6.970;2022-10-04T08:00:20;17.80;84.10
60313;DHT22;46158;52.850;6.970;2022-10-04T08:03:18;17.80;84.10
60313;DHT22;46158;52.850;6.970;2022-10-04T08:06:20;17.80;84.10
60313;DHT22;46158;52.850;6.970;2022-10-04T08:09:18;17.90;84.10
60313;DHT22;46158;52.850;6.970;2022-10-04T08:20:28;18.00;84.20
60313;DHT22;46158;52.850;6.970;2022-10-04T08:28:47;18.00;84.00
60313;DHT22;46158;52.850;6.970;2022-10-04T08:32:04;18.10;84.00
60313;DHT22;46158;52.850;6.970;2022-10-04T08:57:12;18.20;83.60
60313;DHT22;46158;52.850;6.970;2022-10-04T09:00:10;18.20;83.60
60313;DHT22;46158;52.850;6.970;2022-10-04T09:11:06;18.30;83.60
60313;DHT22;46158;52.850;6.970;2022-10-04T09:14:04;18.30;83.60
60313;DHT22;46158;52.850;6.970;2022-10-04T09:16:47;18.30;83.60
60313;DHT22;46158;52.850;6.970;2022-10-04T09:25:29;18.30;83.70
60313;DHT22;46158;52.850;6.970;2022-10-04T09:34:05;18.30;83.60
60313;DHT22;46158;52.850;6.970;2022-10-04T09:39:34;18.40;83.60
60313;DHT22;46158;52.850;6.970;2022-10-04T10:05:41;18.50;83.20
60313;DHT22;46158;52.850;6.970;2022-10-04T10:11:12;18.50;83.20
60313;DHT22;46158;52.850;6.970;2022-10-04T10:17:01;18.40;82.90
60313;DHT22;46158;52.850;6.970;2022-10-04T10:31:04;18.50;83.20
60313;DHT22;46158;52.850;6.970;2022-10-04T10:33:56;18.50;83.30
60313;DHT22;46158;52.850;6.970;2022-10-04T10:36:54;18.60;83.90
60313;DHT22;46158;52.850;6.970;2022-10-04T10:45:06;18.60;83.20
60313;DHT22;46158;52.850;6.970;2022-10-04T10:57:32;18.60;83.30
60313;DHT22;46158;52.850;6.970;2022-10-04T11:00:05;18.70;83.40
60313;DHT22;46158;52.850;6.970;2022-10-04T11:02:53;18.70;83.40
60313;DHT22;46158;52.850;6.970;2022-10-04T11:28:19;18.80;83.60
60313;DHT22;46158;52.850;6.970;2022-10-04T11:41:45;18.80;83.20
60313;DHT22;46158;52.850;6.970;2022-10-04T11:55:46;18.90;83.00
60313;DHT22;46158;52.850;6.970;2022-10-04T12:04:52;18.90;82.90
60313;DHT22;46158;52.850;6.970;2022-10-04T12:10:28;18.90;82.90
60313;DHT22;46158;52.850;6.970;2022-10-04T12:16:00;18.90;82.70
60313;DHT22;46158;52.850;6.970;2022-10-04T12:26:53;18.90;82.40
60313;DHT22;46158;52.850;6.970;2022-10-04T12:29:31;18.90;82.30
60313;DHT22;46158;52.850;6.970;2022-10-04T12:37:31;18.90;82.40
60313;DHT22;46158;52.850;6.970;2022-10-04T12:46:02;18.90;82.30
60313;DHT22;46158;52.850;6.970;2022-10-04T12:51:38;18.90;83.10
60313;DHT22;46158;52.850;6.970;2022-10-04T12:57:25;18.90;82.40
60313;DHT22;46158;52.850;6.970;2022-10-04T13:05:28;18.90;82.40
60313;DHT22;46158;52.850;6.970;2022-10-04T13:08:11;18.90;82.40
60313;DHT22;46158;52.850;6.970;2022-10-04T13:28:32;19.00;82.30
60313;DHT22;46158;52.850;6.970;2022-10-04T13:31:19;19.00;82.40
60313;DHT22;46158;52.850;6.970;2022-10-04T13:33:59;19.00;82.30
60313;DHT22;46158;52.850;6.970;2022-10-04T13:36:52;19.00;82.40
60313;DHT22;46158;52.850;6.970;2022-10-04T13:45:07;19.00;82.30
60313;DHT22;46158;52.850;6.970;2022-10-04T14:12:29;19.10;82.00
60313;DHT22;46158;52.850;6.970;2022-10-04T14:26:40;19.10;82.20
60313;DHT22;46158;52.850;6.970;2022-10-04T14:29:39;19.20;82.00
60313;DHT22;46158;52.850;6.970;2022-10-04T14:35:09;19.10;82.20
60313;DHT22;46158;52.850;6.970;2022-10-04T14:40:31;19.20;82.20
60313;DHT22;46158;52.850;6.970;2022-10-04T15:07:16;19.30;82.10
60313;DHT22;46158;52.850;6.970;2022-10-04T15:09:53;19.30;81.90
60313;DHT22;46158;52.850;6.970;2022-10-04T15:20:34;19.30;81.80
60313;DHT22;46158;52.850;6.970;2022-10-04T15:25:45;19.30;81.80
60313;DHT22;46158;52.850;6.970;2022-10-04T15:31:33;19.30;81.70
60313;DHT22;46158;52.850;6.970;2022-10-04T15:34:38;19.30;81.70
60313;DHT22;46158;52.850;6.970;2022-10-04T15:48:37;19.30;82.40
60313;DHT22;46158;52.850;6.970;2022-10-04T15:54:41;19.30;82.80
60313;DHT22;46158;52.850;6.970;2022-10-04T15:57:21;19.30;83.00
60313;DHT22;46158;52.850;6.970;2022-10-04T16:00:01;19.30;83.20
60313;DHT22;46158;52.850;6.970;2022-10-04T16:05:20;19.40;83.40
60313;DHT22;46158;52.850;6.970;2022-10-04T16:08:28;19.40;83.60
60313;DHT22;46158;52.850;6.970;2022-10-04T16:22:11;19.50;83.70
60313;DHT22;46158;52.850;6.970;2022-10-04T16:24:51;19.40;83.60
60313;DHT22;46158;52.850;6.970;2022-10-04T16:30:26;19.50;83.50
60313;DHT22;46158;52.850;6.970;2022-10-04T16:33:11;19.50;83.60
60313;DHT22;46158;52.850;6.970;2022-10-04T16:38:43;19.50;82.70
60313;DHT22;46158;52.850;6.970;2022-10-04T16:41:54;19.50;83.20
60313;DHT22;46158;52.850;6.970;2022-10-04T16:46:55;19.50;83.10
60313;DHT22;46158;52.850;6.970;2022-10-04T16:49:36;19.50;82.80
60313;DHT22;46158;52.850;6.970;2022-10-04T16:55:15;19.50;82.10
60313;DHT22;46158;52.850;6.970;2022-10-04T17:01:38;19.40;82.40
60313;DHT22;46158;52.850;6.970;2022-10-04T17:03:44;19.40;82.50
60313;DHT22;46158;52.850;6.970;2022-10-04T17:06:14;19.30;82.50
60313;DHT22;46158;52.850;6.970;2022-10-04T17:08:52;19.30;82.50
60313;DHT22;46158;52.850;6.970;2022-10-04T17:11:40;19.30;82.60
60313;DHT22;46158;52.850;6.970;2022-10-04T17:14:34;19.30;82.60
60313;DHT22;46158;52.850;6.970;2022-10-04T17:17:46;19.30;82.60
60313;DHT22;46158;52.850;6.970;2022-10-04T17:20:29;19.30;82.60
60313;DHT22;46158;52.850;6.970;2022-10-04T17:23:42;19.30;82.60
60313;DHT22;46158;52.850;6.970;2022-10-04T17:43:03;19.30;82.50
60313;DHT22;46158;52.850;6.970;2022-10-04T17:45:46;19.30;82.30
60313;DHT22;46158;52.850;6.970;2022-10-04T17:48:24;19.30;82.30
60313;DHT22;46158;52.850;6.970;2022-10-04T17:54:16;19.20;82.20
60313;DHT22;46158;52.850;6.970;2022-10-04T17:59:29;19.20;82.00
60313;DHT22;46158;52.850;6.970;2022-10-04T18:02:09;19.20;81.90
60313;DHT22;46158;52.850;6.970;2022-10-04T18:04:44;19.30;81.80
60313;DHT22;46158;52.850;6.970;2022-10-04T18:07:39;19.30;81.80
60313;DHT22;46158;52.850;6.970;2022-10-04T18:10:26;19.20;81.50
60313;DHT22;46158;52.850;6.970;2022-10-04T18:18:37;19.20;81.50
60313;DHT22;46158;52.850;6.970;2022-10-04T18:23:50;19.30;81.30
60313;DHT22;46158;52.850;6.970;2022-10-04T18:26:18;19.20;82.10
60313;DHT22;46158;52.850;6.970;2022-10-04T18:28:49;19.20;81.50
60313;DHT22;46158;52.850;6.970;2022-10-04T18:31:38;19.20;81.30
60313;DHT22;46158;52.850;6.970;2022-10-04T18:34:14;19.20;81.10
60313;DHT22;46158;52.850;6.970;2022-10-04T18:39:42;19.30;80.80
60313;DHT22;46158;52.850;6.970;2022-10-04T18:42:21;19.20;80.80
60313;DHT22;46158;52.850;6.970;2022-10-04T18:45:00;19.20;80.70
60313;DHT22;46158;52.850;6.970;2022-10-04T18:47:33;19.30;80.80
60313;DHT22;46158;52.850;6.970;2022-10-04T18:50:04;19.30;80.80
60313;DHT22;46158;52.850;6.970;2022-10-04T18:52:54;19.30;80.70
60313;DHT22;46158;52.850;6.970;2022-10-04T19:01:44;19.20;80.60
60313;DHT22;46158;52.850;6.970;2022-10-04T19:10:12;19.20;80.50
60313;DHT22;46158;52.850;6.970;2022-10-04T19:18:23;19.20;80.80
60313;DHT22;46158;52.850;6.970;2022-10-04T19:20:54;19.10;80.80
60313;DHT22;46158;52.850;6.970;2022-10-04T19:26:30;19.20;80.40
60313;DHT22;46158;52.850;6.970;2022-10-04T19:32:03;19.20;80.50
60313;DHT22;46158;52.850;6.970;2022-10-04T19:37:36;19.20;80.50
60313;DHT22;46158;52.850;6.970;2022-10-04T19:42:50;19.20;80.50
60313;DHT22;46158;52.850;6.970;2022-10-04T19:45:34;19.20;80.60
60313;DHT22;46158;52.850;6.970;2022-10-04T19:48:06;19.20;80.60
60313;DHT22;46158;52.850;6.970;2022-10-04T19:50:38;19.20;80.60
60313;DHT22;46158;52.850;6.970;2022-10-04T19:55:55;19.10;80.70
60313;DHT22;46158;52.850;6.970;2022-10-04T20:01:11;19.10;80.70
60313;DHT22;46158;52.850;6.970;2022-10-04T20:03:38;19.10;80.80
60313;DHT22;46158;52.850;6.970;2022-10-04T20:06:04;19.10;80.90
60313;DHT22;46158;52.850;6.970;2022-10-04T20:08:54;19.10;80.80
60313;DHT22;46158;52.850;6.970;2022-10-04T20:11:44;19.10;80.60
60313;DHT22;46158;52.850;6.970;2022-10-04T20:19:37;19.10;80.80
60313;DHT22;46158;52.850;6.970;2022-10-04T20:36:09;19.10;80.50
60313;DHT22;46158;52.850;6.970;2022-10-04T20:38:12;19.10;80.30
60313;DHT22;46158;52.850;6.970;2022-10-04T20:45:50;19.10;80.00
60313;DHT22;46158;52.850;6.970;2022-10-04T20:48:27;19.10;79.80
60313;DHT22;46158;52.850;6.970;2022-10-04T20:50:55;19.10;79.80
60313;DHT22;46158;52.850;6.970;2022-10-04T20:53:25;19.00;79.80
60313;DHT22;46158;52.850;6.970;2022-10-04T20:58:38;19.10;79.60
60313;DHT22;46158;52.850;6.970;2022-10-04T21:01:22;19.00;79.50
60313;DHT22;46158;52.850;6.970;2022-10-04T21:04:13;19.10;79.40
60313;DHT22;46158;52.850;6.970;2022-10-04T21:06:53;19.00;79.40
60313;DHT22;46158;52.850;6.970;2022-10-04T21:09:19;19.00;79.30
60313;DHT22;46158;52.850;6.970;2022-10-04T21:11:49;19.00;79.30
60313;DHT22;46158;52.850;6.970;2022-10-04T21:14:25;19.00;79.20
60313;DHT22;46158;52.850;6.970;2022-10-04T21:16:59;19.00;79.10
60313;DHT22;46158;52.850;6.970;2022-10-04T21:22:06;19.00;79.10
60313;DHT22;46158;52.850;6.970;2022-10-04T21:27:09;19.00;79.00
60313;DHT22;46158;52.850;6.970;2022-10-04T21:29:36;19.00;79.00
60313;DHT22;46158;52.850;6.970;2022-10-04T21:32:03;19.00;78.90
60313;DHT22;46158;52.850;6.970;2022-10-04T21:34:29;19.00;78.80
60313;DHT22;46158;52.850;6.970;2022-10-04T21:36:54;19.00;78.80
60313;DHT22;46158;52.850;6.970;2022-10-04T21:39:20;19.00;78.80
60313;DHT22;46158;52.850;6.970;2022-10-04T21:41:47;19.00;78.80
60313;DHT22;46158;52.850;6.970;2022-10-04T21:44:13;19.00;78.70
60313;DHT22;46158;52.850;6.970;2022-10-04T21:46:38;19.00;78.70
60313;DHT22;46158;52.850;6.970;2022-10-04T21:49:05;19.00;78.60
60313;DHT22;46158;52.850;6.970;2022-10-04T21:51:31;18.90;78.60
60313;DHT22;46158;52.850;6.970;2022-10-04T21:53:58;18.90;78.70
60313;DHT22;46158;52.850;6.970;2022-10-04T21:56:24;18.90;78.70
60313;DHT22;46158;52.850;6.970;2022-10-04T21:58:49;18.90;78.50
60313;DHT22;46158;52.850;6.970;2022-10-04T22:01:15;18.90;78.50
60313;DHT22;46158;52.850;6.970;2022-10-04T22:03:41;18.90;78.50
60313;DHT22;46158;52.850;6.970;2022-10-04T22:06:07;18.90;78.60
60313;DHT22;46158;52.850;6.970;2022-10-04T22:08:32;18.90;78.70
60313;DHT22;46158;52.850;6.970;2022-10-04T22:10:58;18.90;78.80
60313;DHT22;46158;52.850;6.970;2022-10-04T22:13:23;18.90;78.90
60313;DHT22;46158;52.850;6.970;2022-10-04T22:15:51;18.90;78.90
60313;DHT22;46158;52.850;6.970;2022-10-04T22:18:16;18.90;78.90
60313;DHT22;46158;52.850;6.970;2022-10-04T22:20:42;18.90;78.80
60313;DHT22;46158;52.850;6.970;2022-10-04T22:23:20;18.90;78.80
60313;DHT22;46158;52.850;6.970;2022-10-04T22:25:46;18.90;78.80
60313;DHT22;46158;52.850;6.970;2022-10-04T22:28:17;18.80;79.50
60313;DHT22;46158;52.850;6.970;2022-10-04T22:30:45;18.80;78.70
60313;DHT22;46158;52.850;6.970;2022-10-04T22:33:31;18.80;78.80
60313;DHT22;46158;52.850;6.970;2022-10-04T22:36:20;18.80;78.70
60313;DHT22;46158;52.850;6.970;2022-10-04T22:38:56;18.80;78.80
60313;DHT22;46158;52.850;6.970;2022-10-04T22:41:26;18.80;78.70
60313;DHT22;46158;52.850;6.970;2022-10-04T22:43:56;18.80;78.70
60313;DHT22;46158;52.850;6.970;2022-10-04T22:46:27;18.80;78.70
60313;DHT22;46158;52.850;6.970;2022-10-04T22:48:56;18.70;78.60
60313;DHT22;46158;52.850;6.970;2022-10-04T22:51:22;18.70;78.50
60313;DHT22;46158;52.850;6.970;2022-10-04T22:53:48;18.70;78.60
60313;DHT22;46158;52.850;6.970;2022-10-04T22:56:14;18.70;78.50
60313;DHT22;46158;52.850;6.970;2022-10-04T22:58:40;18.70;78.50
60313;DHT22;46158;52.850;6.970;2022-10-04T23:01:15;18.70;78.50
60313;DHT22;46158;52.850;6.970;2022-10-04T23:03:44;18.70;78.30
60313;DHT22;46158;52.850;6.970;2022-10-04T23:06:10;18.70;78.40
60313;DHT22;46158;52.850;6.970;2022-10-04T23:08:42;18.70;78.50
60313;DHT22;46158;52.850;6.970;2022-10-04T23:11:09;18.70;78.40
60313;DHT22;46158;52.850;6.970;2022-10-04T23:13:36;18.70;79.00
60313;DHT22;46158;52.850;6.970;2022-10-04T23:16:13;18.70;78.30
60313;DHT22;46158;52.850;6.970;2022-10-04T23:18:40;18.70;78.20
60313;DHT22;46158;52.850;6.970;2022-10-04T23:21:17;18.70;78.30
60313;DHT22;46158;52.850;6.970;2022-10-04T23:23:44;18.70;78.20
60313;DHT22;46158;52.850;6.970;2022-10-04T23:26:21;18.70;78.20
60313;DHT22;46158;52.850;6.970;2022-10-04T23:28:49;18.70;78.10
60313;DHT22;46158;52.850;6.970;2022-10-04T23:31:20;18.60;78.20
60313;DHT22;46158;52.850;6.970;2022-10-04T23:33:46;18.70;78.10
60313;DHT22;46158;52.850;6.970;2022-10-04T23:36:13;18.60;78.10
60313;DHT22;46158;52.850;6.970;2022-10-04T23:38:46;18.60;78.10
60313;DHT22;46158;52.850;6.970;2022-10-04T23:41:13;18.60;78.00
60313;DHT22;46158;52.850;6.970;2022-10-04T23:43:40;18.60;78.00
60313;DHT22;46158;52.850;6.970;2022-10-04T23:46:12;18.60;77.90
60313;DHT22;46158;52.850;6.970;2022-10-04T23:48:39;18.60;77.90
60313;DHT22;46158;52.850;6.970;2022-10-04T23:51:05;18.60;78.00
60313;DHT22;46158;52.850;6.970;2022-10-04T23:53:32;18.60;77.90
60313;DHT22;46158;52.850;6.970;2022-10-04T23:56:03;18.60;77.90
60313;DHT22;46158;52.850;6.970;2022-10-04T23:58:37;18.60;77.90
